Time;durP1;ratioP1;P1;durP2;ratioP2;P2;SDS_P1;SDS_P2;PMS_P1;PMS_P2;Temp;Humidity;BMP_temperature;BMP_pressure;BME280_temperature;BME280_humidity;BME280_pressure;Samples;Min_cycle;Max_cycle;Signal;HPM_P1;HPM_P2
2023/08/19 00:01:14;;;;;;;14.87;8.73;;;;;;;-141.97;47.52;47373.00;5013065;28;20612;-83
2023/08/19 00:03:39;;;;;;;11.70;8.38;;;;;;;-141.97;47.93;47376.84;5013073;28;20167;-83
2023/08/19 00:06:07;;;;;;;14.70;8.33;;;;;;;-141.97;48.07;47413.38;5013003;28;20623;-83
2023/08/19 00:08:32;;;;;;;13.77;8.80;;;;;;;-141.97;48.43;47630.56;5012941;28;20167;-83
2023/08/19 00:10:58;;;;;;;12.67;8.70;;;;;;;-141.97;48.47;47369.16;5013321;28;20165;-83
2023/08/19 00:13:23;;;;;;;11.60;8.47;;;;;;;-141.97;48.33;47288.44;5012634;28;20175;-84
2023/08/19 00:15:49;;;;;;;16.53;8.77;;;;;;;-141.97;48.58;47615.19;5013823;28;20201;-84
2023/08/19 00:18:14;;;;;;;14.90;8.10;;;;;;;-141.97;48.42;47392.22;5013550;28;20620;-84
2023/08/19 00:20:40;;;;;;;14.73;8.20;;;;;;;-141.97;48.57;47294.22;5013430;28;20611;-84
2023/08/19 00:23:05;;;;;;;13.93;8.57;;;;;;;-141.97;48.70;47349.94;5014382;28;20351;-84
2023/08/19 00:25:33;;;;;;;12.97;9.23;;;;;;;-141.97;48.39;47373.00;5013809;28;20250;-84
2023/08/19 00:27:59;;;;;;;15.20;8.90;;;;;;;-141.97;48.38;47332.66;5012748;28;20175;-82
2023/08/19 00:30:25;;;;;;;14.50;8.93;;;;;;;-141.97;48.58;47615.19;5012995;28;20242;-83
2023/08/19 00:32:50;;;;;;;14.90;9.50;;;;;;;-141.97;48.72;47392.22;5010917;28;20174;-83
2023/08/19 00:35:16;;;;;;;14.23;9.77;;;;;;;-141.97;48.63;47321.13;5012636;28;20634;-83
2023/08/19 00:37:41;;;;;;;12.67;8.93;;;;;;;-141.97;48.93;47567.13;5012532;28;20166;-84
2023/08/19 00:40:12;;;;;;;14.97;9.37;;;;;;;-141.97;49.06;47378.78;5012574;28;20345;-83
2023/08/19 00:42:37;;;;;;;11.77;9.70;;;;;;;-141.97;49.30;47422.97;5010713;28;20167;-85
2023/08/19 00:45:03;;;;;;;14.13;9.37;;;;;;;-141.97;49.65;47432.59;5002336;28;20787;-83
2023/08/19 00:47:29;;;;;;;13.03;8.90;;;;;;;-141.97;49.27;47288.44;5012580;28;20171;-83
2023/08/19 00:49:54;;;;;;;16.70;9.50;;;;;;;-141.97;49.80;47380.69;5010393;28;20607;-84
2023/08/19 00:52:20;;;;;;;15.23;9.60;;;;;;;-141.97;49.97;47394.16;5012299;28;20187;-84
2023/08/19 00:54:45;;;;;;;17.33;9.40;;;;;;;-141.97;50.12;47323.03;5012670;28;20173;-83
2023/08/19 00:57:14;;;;;;;16.90;9.73;;;;;;;-141.97;50.43;47376.84;5012818;28;20199;-83
2023/08/19 00:59:39;;;;;;;14.97;8.70;;;;;;;-141.97;50.84;47405.69;5011594;28;20167;-83
2023/08/19 01:02:04;;;;;;;10.13;8.37;;;;;;;-141.97;50.90;47405.69;5012336;28;20161;-84
2023/08/19 01:04:30;;;;;;;13.80;8.30;;;;;;;-141.97;51.30;47411.44;5011076;28;20704;-84
2023/08/19 01:07:01;;;;;;;9.90;7.90;;;;;;;-141.97;51.42;47403.75;5012119;28;20249;-83
2023/08/19 01:09:30;;;;;;;11.33;7.70;;;;;;;-141.97;51.65;47484.47;5011808;28;20225;-83
2023/08/19 01:12:04;;;;;;;14.77;7.80;;;;;;;-141.97;51.54;47399.91;5010217;28;20182;-83
2023/08/19 01:14:41;;;;;;;10.07;7.70;;;;;;;-141.97;51.78;47430.66;5012332;28;20207;-84
2023/08/19 01:17:10;;;;;;;16.47;7.90;;;;;;;-141.97;52.21;47421.06;5011446;28;20166;-83
2023/08/19 01:19:37;;;;;;;11.27;7.80;;;;;;;-141.97;52.59;47396.06;5011554;28;20589;-85
2023/08/19 01:22:04;;;;;;;9.83;7.13;;;;;;;-141.97;53.06;47301.91;5011871;28;20167;-83
2023/08/19 01:24:40;;;;;;;9.57;7.80;;;;;;;-141.97;52.98;47392.22;5010361;28;20676;-83
2023/08/19 01:27:20;;;;;;;10.97;7.40;;;;;;;-141.97;53.24;47599.81;5010346;28;20614;-83
2023/08/19 01:29:46;;;;;;;12.87;7.40;;;;;;;-141.97;53.70;47430.66;5011688;28;20170;-83
2023/08/19 01:32:11;;;;;;;11.67;8.00;;;;;;;-141.97;53.98;47428.75;5011496;28;20171;-84
2023/08/19 01:34:37;;;;;;;13.80;7.43;;;;;;;-141.97;54.27;47457.56;5010648;28;20626;-83
2023/08/19 01:37:07;;;;;;;10.87;7.60;;;;;;;-141.97;54.71;47309.59;5011238;28;20178;-84
2023/08/19 01:39:36;;;;;;;10.93;7.60;;;;;;;-141.97;54.60;47357.63;5011730;28;20624;-84
2023/08/19 01:42:03;;;;;;;16.57;7.87;;;;;;;-141.97;55.03;47586.34;5011457;28;20174;-84
2023/08/19 01:44:28;;;;;;;16.23;7.53;;;;;;;-141.97;55.46;47419.13;5003404;28;20276;-83
2023/08/19 01:46:54;;;;;;;14.33;8.20;;;;;;;-141.97;55.75;47413.38;5022154;28;20718;-84
2023/08/19 01:49:19;;;;;;;16.53;8.67;;;;;;;-141.97;55.82;47415.28;5025182;28;20259;-84
2023/08/19 01:51:45;;;;;;;24.97;8.90;;;;;;;-141.97;55.62;47505.63;5012905;28;20938;-83
2023/08/19 01:54:10;;;;;;;21.37;8.73;;;;;;;-141.97;55.63;47269.22;5011602;28;20218;-83
2023/08/19 01:56:36;;;;;;;21.80;9.13;;;;;;;-141.97;55.35;47563.28;5012004;28;20186;-84
2023/08/19 01:59:02;;;;;;;22.23;9.20;;;;;;;-141.97;55.16;47419.13;5011563;28;20192;-84
2023/08/19 02:01:27;;;;;;;34.60;9.87;;;;;;;-141.97;54.91;47424.91;5011811;28;20296;-83
2023/08/19 02:03:52;;;;;;;19.67;8.90;;;;;;;-141.97;55.21;47315.34;5011821;28;20182;-84
2023/08/19 02:06:18;;;;;;;13.77;8.10;;;;;;;-141.97;55.58;47409.53;5011217;28;20178;-84
2023/08/19 02:08:43;;;;;;;11.43;8.13;;;;;;;-141.97;55.50;47409.53;5011528;28;20177;-83
2023/08/19 02:11:09;;;;;;;13.10;8.47;;;;;;;-141.97;55.74;47442.19;5020601;28;20170;-82
2023/08/19 02:13:34;;;;;;;16.33;9.37;;;;;;;-141.97;55.70;47424.91;5030734;28;20209;-82
2023/08/19 02:15:59;;;;;;;15.87;8.97;;;;;;;-141.97;56.01;47422.97;5011951;28;20167;-84
2023/08/19 02:18:26;;;;;;;13.93;8.83;;;;;;;-141.97;56.15;47434.50;5011264;28;20167;-84
2023/08/19 02:20:51;;;;;;;12.97;8.90;;;;;;;-141.97;56.28;47348.03;5010986;28;20202;-84
2023/08/19 02:23:16;;;;;;;14.63;9.20;;;;;;;-141.97;56.37;47449.88;5011348;28;20244;-83
2023/08/19 02:25:42;;;;;;;17.40;9.00;;;;;;;-141.97;56.86;47419.13;5011134;28;20162;-83
2023/08/19 02:28:07;;;;;;;15.37;9.13;;;;;;;-141.97;56.87;47396.06;5010803;28;20258;-84
2023/08/19 02:30:33;;;;;;;14.40;9.10;;;;;;;-141.97;56.61;47315.34;5011623;28;20247;-84
2023/08/19 02:33:07;;;;;;;17.90;8.50;;;;;;;-141.97;57.03;47411.44;5010988;28;20171;-83
2023/08/19 02:35:32;;;;;;;11.50;7.97;;;;;;;-141.97;57.46;47411.44;5010983;28;20170;-84
2023/08/19 02:37:58;;;;;;;11.50;8.10;;;;;;;-141.97;57.71;47570.97;5010517;28;20174;-82
2023/08/19 02:40:23;;;;;;;11.10;8.00;;;;;;;-141.97;58.21;47465.25;5011469;28;20726;-84
2023/08/19 02:42:49;;;;;;;14.37;8.77;;;;;;;-141.97;58.17;47615.19;5010636;28;20190;-84
2023/08/19 02:45:14;;;;;;;12.70;8.27;;;;;;;-141.97;57.59;47436.44;4999492;28;20234;-84
2023/08/19 02:47:40;;;;;;;12.97;8.80;;;;;;;-141.97;57.65;47551.75;5011106;28;20236;-84
2023/08/19 02:50:06;;;;;;;11.43;8.80;;;;;;;-141.97;58.04;47413.38;5010708;28;20204;-84
2023/08/19 02:52:31;;;;;;;12.80;8.33;;;;;;;-141.97;57.74;47667.06;5009156;28;20245;-83
2023/08/19 02:54:57;;;;;;;13.60;8.53;;;;;;;-141.97;58.35;47444.13;5010411;28;20179;-84
2023/08/19 02:57:22;;;;;;;14.50;8.13;;;;;;;-141.97;59.89;47453.72;5010442;28;20671;-81
2023/08/19 02:59:47;;;;;;;11.63;8.67;;;;;;;-141.97;59.80;47417.22;5012669;28;20167;-83
2023/08/19 03:02:13;;;;;;;10.83;8.70;;;;;;;-141.97;59.69;47357.63;5014644;28;20641;-85
2023/08/19 03:04:38;;;;;;;12.07;8.77;;;;;;;-141.97;59.05;47373.00;4996238;28;20187;-83
2023/08/19 03:07:04;;;;;;;16.50;8.80;;;;;;;-141.97;58.59;47644.00;5003679;28;20182;-84
2023/08/19 03:09:29;;;;;;;10.63;8.50;;;;;;;-141.97;58.53;47346.09;5014600;28;20179;-83
2023/08/19 03:11:55;;;;;;;13.07;9.60;;;;;;;-141.97;58.34;47440.28;5013401;28;20213;-83
2023/08/19 03:14:20;;;;;;;14.70;9.43;;;;;;;-141.97;57.92;47432.59;5014190;28;20170;-83
2023/08/19 03:16:45;;;;;;;14.23;9.73;;;;;;;-141.97;57.92;47476.78;5011928;28;20182;-84
2023/08/19 03:19:11;;;;;;;15.57;9.73;;;;;;;-141.97;58.45;47403.75;5013774;28;20194;-84
2023/08/19 03:21:36;;;;;;;13.33;9.53;;;;;;;-141.97;59.31;47428.75;5012831;28;20206;-83
2023/08/19 03:24:02;;;;;;;13.57;10.03;;;;;;;-141.97;58.92;47453.72;5014256;28;20162;-83
2023/08/19 03:26:27;;;;;;;16.17;10.77;;;;;;;-141.97;58.79;47353.78;5013257;28;20179;-83
2023/08/19 03:28:53;;;;;;;15.97;10.87;;;;;;;-141.97;59.51;47398.00;5019390;28;20178;-84
2023/08/19 03:31:19;;;;;;;13.80;10.30;;;;;;;-141.97;59.83;47442.19;5016011;28;20678;-84
2023/08/19 03:33:45;;;;;;;16.57;10.57;;;;;;;-141.97;60.06;47413.38;5012323;28;20277;-83
2023/08/19 03:36:10;;;;;;;18.27;9.97;;;;;;;-141.97;60.32;47449.88;5014513;28;20248;-85
2023/08/19 03:38:36;;;;;;;12.90;10.30;;;;;;;-141.97;61.13;47469.09;5013816;28;20253;-82
2023/08/19 03:41:01;;;;;;;15.80;10.70;;;;;;;-141.97;62.06;47557.53;5013239;28;20654;-84
2023/08/19 03:43:27;;;;;;;22.03;14.00;;;;;;;-141.97;62.43;47453.72;5013746;28;20216;-83
2023/08/19 03:45:52;;;;;;;27.77;14.47;;;;;;;-141.97;62.51;47642.09;5003792;28;20690;-83
2023/08/19 03:48:17;;;;;;;19.10;12.33;;;;;;;-141.97;62.34;47451.81;5015049;28;20186;-85
2023/08/19 03:50:43;;;;;;;24.13;13.13;;;;;;;-141.97;62.44;47653.63;5014133;28;20717;-84
2023/08/19 03:53:08;;;;;;;19.57;12.03;;;;;;;-141.97;64.10;47369.16;5011924;28;20301;-84
2023/08/19 03:55:33;;;;;;;22.63;13.30;;;;;;;-141.97;63.53;47434.50;5013816;28;20200;-84
2023/08/19 03:57:59;;;;;;;20.40;11.80;;;;;;;-141.97;62.99;47403.75;5014639;28;20198;-84
2023/08/19 04:00:24;;;;;;;21.87;11.97;;;;;;;-141.97;62.75;47476.78;5014770;28;20197;-83
2023/08/19 04:02:50;;;;;;;17.43;11.93;;;;;;;-141.97;62.75;47459.50;5022975;28;20222;-83
2023/08/19 04:05:15;;;;;;;21.27;12.33;;;;;;;-141.97;62.78;47447.97;5016197;28;20163;-86
2023/08/19 04:07:41;;;;;;;23.73;14.27;;;;;;;-141.97;62.63;47480.63;5014586;28;20238;-84
2023/08/19 04:10:07;;;;;;;18.70;13.07;;;;;;;-141.97;62.61;47449.88;5013182;28;20162;-84
2023/08/19 04:12:33;;;;;;;28.20;15.90;;;;;;;-141.97;62.05;47467.19;5013634;28;20182;-84
2023/08/19 04:14:59;;;;;;;27.30;16.13;;;;;;;-141.97;61.72;47463.34;5013598;28;20163;-83
2023/08/19 04:17:24;;;;;;;26.00;15.53;;;;;;;-141.97;62.12;47438.34;5013343;28;20669;-84
2023/08/19 04:19:50;;;;;;;29.87;16.80;;;;;;;-141.97;62.39;47396.06;5013548;28;20163;-83
2023/08/19 04:22:16;;;;;;;26.63;16.97;;;;;;;-141.97;62.38;47682.47;5013388;28;20177;-84
2023/08/19 04:24:42;;;;;;;25.17;17.60;;;;;;;-141.97;62.20;47459.50;5013149;28;20167;-83
2023/08/19 04:27:07;;;;;;;31.63;20.60;;;;;;;-141.97;62.11;47357.63;5013207;28;20599;-84
2023/08/19 04:29:33;;;;;;;29.57;17.87;;;;;;;-141.97;62.20;47365.31;5013341;28;20187;-84
2023/08/19 04:32:02;;;;;;;31.63;19.77;;;;;;;-141.97;62.29;47449.88;5012972;28;20284;-84
2023/08/19 04:34:29;;;;;;;37.20;23.03;;;;;;;-141.97;62.01;47451.81;5011558;28;20171;-83
2023/08/19 04:36:55;;;;;;;38.53;26.10;;;;;;;-141.97;62.89;47599.81;5014276;28;20243;-83
2023/08/19 04:39:21;;;;;;;38.63;24.80;;;;;;;-141.97;64.29;47396.06;5013972;28;20623;-83
2023/08/19 04:41:46;;;;;;;62.87;40.80;;;;;;;-141.97;66.31;47426.81;5013288;28;20191;-83
2023/08/19 04:44:12;;;;;;;62.97;40.50;;;;;;;-141.97;66.28;47365.31;5012883;28;20186;-83
2023/08/19 04:46:37;;;;;;;101.23;58.73;;;;;;;-141.97;65.98;47376.84;5003265;28;20714;-84
2023/08/19 04:49:03;;;;;;;121.60;73.17;;;;;;;-141.97;66.45;47480.63;5012980;28;20175;-83
2023/08/19 04:51:28;;;;;;;138.50;85.53;;;;;;;-141.97;66.08;47465.25;5012198;28;20175;-84
2023/08/19 04:53:54;;;;;;;141.40;87.90;;;;;;;-141.97;65.83;47446.03;5013285;28;20230;-84
2023/08/19 04:56:19;;;;;;;144.03;88.40;;;;;;;-141.97;65.38;47476.78;5035499;28;20175;-82
2023/08/19 04:58:45;;;;;;;139.30;87.43;;;;;;;-141.97;65.22;47459.50;5019350;28;20179;-84
2023/08/19 05:01:10;;;;;;;125.07;75.90;;;;;;;-141.97;64.37;47449.88;5012626;28;20202;-83
2023/08/19 05:03:35;;;;;;;108.93;66.77;;;;;;;-141.97;63.86;47511.38;5011282;28;20232;-84
2023/08/19 05:06:01;;;;;;;102.27;61.27;;;;;;;-141.97;63.40;47447.97;5012061;28;20191;-82
2023/08/19 05:08:26;;;;;;;89.67;55.13;;;;;;;-141.97;62.27;47494.09;5011522;28;20166;-83
2023/08/19 05:10:52;;;;;;;90.23;54.03;;;;;;;-141.97;61.63;47480.63;5010707;28;20196;-83
2023/08/19 05:13:18;;;;;;;83.50;53.67;;;;;;;-141.97;61.12;47463.34;5010517;28;20622;-84
2023/08/19 05:15:43;;;;;;;67.03;41.93;;;;;;;-141.97;60.84;47509.47;5011014;28;20273;-83
2023/08/19 05:18:09;;;;;;;50.50;32.97;;;;;;;-141.97;62.23;47447.97;5011448;28;20261;-84
2023/08/19 05:20:34;;;;;;;50.10;31.23;;;;;;;-141.97;62.28;47451.81;5011086;28;20639;-83
2023/08/19 05:22:59;;;;;;;44.90;28.63;;;;;;;-141.97;62.21;47476.78;5026068;28;20205;-84
2023/08/19 05:25:25;;;;;;;50.17;27.03;;;;;;;-141.97;62.08;47449.88;5011437;28;20193;-84
2023/08/19 05:27:50;;;;;;;39.00;24.10;;;;;;;-141.97;60.85;47617.09;5013543;28;20654;-85
2023/08/19 05:30:16;;;;;;;33.13;22.63;;;;;;;-141.97;61.11;47476.78;5014319;28;20174;-83
2023/08/19 05:32:41;;;;;;;31.47;21.60;;;;;;;-141.97;61.48;47388.38;5016372;28;20654;-83
2023/08/19 05:35:07;;;;;;;31.23;18.40;;;;;;;-141.97;60.53;47403.75;5014115;28;20254;-84
2023/08/19 05:37:32;;;;;;;24.30;16.07;;;;;;;-141.97;60.34;47453.72;5012912;28;20189;-83
2023/08/19 05:39:58;;;;;;;26.03;14.67;;;;;;;-141.97;60.03;47451.81;5013113;28;20674;-83
2023/08/19 05:42:24;;;;;;;23.13;14.60;;;;;;;-141.97;59.71;47399.91;5011757;28;20182;-84
2023/08/19 05:44:50;;;;;;;19.60;13.83;;;;;;;-141.97;60.35;47401.84;5011686;28;20198;-83
2023/08/19 05:47:16;;;;;;;20.13;13.40;;;;;;;-141.97;60.81;47659.38;5002364;28;20237;-82
2023/08/19 05:49:41;;;;;;;23.37;14.63;;;;;;;-141.97;60.43;47444.13;5011874;28;20195;-84
2023/08/19 05:52:06;;;;;;;21.50;14.13;;;;;;;-141.97;60.60;47430.66;5011162;28;20170;-83
2023/08/19 05:54:32;;;;;;;24.13;13.63;;;;;;;-141.97;59.38;47411.44;5010206;28;20207;-84
2023/08/19 05:56:58;;;;;;;22.50;14.17;;;;;;;-141.97;58.18;47461.41;5009961;28;20186;-82
2023/08/19 05:59:23;;;;;;;23.07;13.97;;;;;;;-141.97;57.93;47430.66;5011296;28;20178;-85
2023/08/19 06:01:48;;;;;;;23.00;14.90;;;;;;;-141.97;56.31;47428.75;5009472;28;20218;-84
2023/08/19 06:04:15;;;;;;;24.10;15.73;;;;;;;-141.97;56.22;47421.06;5010762;28;20236;-84
2023/08/19 06:06:41;;;;;;;23.97;14.43;;;;;;;-141.97;56.06;47432.59;5011064;28;20167;-84
2023/08/19 06:09:07;;;;;;;21.60;14.80;;;;;;;-141.97;55.44;47463.34;5011497;28;20169;-84
2023/08/19 06:11:33;;;;;;;20.93;13.80;;;;;;;-141.97;55.50;47432.59;5010724;28;20274;-84
2023/08/19 06:13:58;;;;;;;19.77;13.53;;;;;;;-141.97;55.27;47303.81;5011327;28;20162;-83
2023/08/19 06:16:23;;;;;;;18.40;12.03;;;;;;;-141.97;54.55;47419.13;5011822;28;20166;-84
2023/08/19 06:18:49;;;;;;;17.73;11.43;;;;;;;-141.97;53.73;47359.56;5013594;28;20173;-85
2023/08/19 06:21:14;;;;;;;18.27;10.97;;;;;;;-141.97;53.06;47424.91;5010106;28;20210;-83
2023/08/19 06:23:40;;;;;;;18.37;11.60;;;;;;;-141.97;51.50;47376.84;5011156;28;20264;-84
2023/08/19 06:26:05;;;;;;;16.83;11.40;;;;;;;-141.97;51.83;47624.78;5011633;28;20163;-82
2023/08/19 06:28:30;;;;;;;16.23;10.80;;;;;;;-141.97;50.29;47411.44;5012038;28;20335;-84
2023/08/19 06:30:56;;;;;;;14.03;10.13;;;;;;;-141.97;51.10;47415.28;5011427;28;20186;-84
2023/08/19 06:33:22;;;;;;;12.93;9.80;;;;;;;-141.97;50.34;47411.44;5012486;28;20175;-86
2023/08/19 06:35:49;;;;;;;14.43;9.40;;;;;;;-141.97;49.61;47422.97;5015781;28;20540;-84
2023/08/19 06:38:18;;;;;;;14.13;10.10;;;;;;;-141.97;48.80;47405.69;5015154;28;20171;-84
2023/08/19 06:41:06;;;;;;;20.33;9.70;;;;;;;-141.97;46.94;47361.47;5014185;28;22358;-85
2023/08/19 06:43:32;;;;;;;11.50;9.10;;;;;;;-141.97;47.34;47374.94;5015084;28;20171;-83
2023/08/19 06:45:58;;;;;;;14.53;8.83;;;;;;;-141.97;48.44;47388.38;5011963;28;20248;-83
2023/08/19 06:48:24;;;;;;;14.20;9.70;;;;;;;-141.97;48.74;47396.06;5021329;28;20257;-83
2023/08/19 06:50:54;;;;;;;17.50;9.90;;;;;;;-141.97;49.48;47340.34;5017108;28;20190;-84
2023/08/19 06:53:20;;;;;;;16.03;10.40;;;;;;;-141.97;49.40;47353.78;5016675;28;20226;-85
2023/08/19 06:56:18;;;;;;;11.93;9.20;;;;;;;-141.97;48.18;47415.28;5015202;28;20661;-85
2023/08/19 06:59:19;;;;;;;16.33;9.80;;;;;;;-141.97;47.75;47369.16;5014638;28;20190;-85
2023/08/19 07:01:51;;;;;;;16.07;9.33;;;;;;;-141.97;46.36;47419.13;5014194;28;20202;-84
2023/08/19 07:04:22;;;;;;;14.48;9.50;;;;;;;-141.97;46.88;47392.22;5014086;28;20173;-84
2023/08/19 07:06:49;;;;;;;12.97;8.90;;;;;;;-141.97;47.31;47388.38;5015073;28;20189;-84
2023/08/19 07:09:16;;;;;;;12.13;8.83;;;;;;;-141.97;47.17;47419.13;5014249;28;20173;-84
2023/08/19 07:11:42;;;;;;;15.53;9.20;;;;;;;-141.97;47.70;47419.13;5015339;28;20179;-85
2023/08/19 07:14:08;;;;;;;15.98;9.85;;;;;;;-141.97;46.62;47388.38;5017786;28;20362;-84
2023/08/19 07:16:34;;;;;;;16.40;9.77;;;;;;;-141.97;46.04;47392.22;5019846;28;20195;-84
2023/08/19 07:19:05;;;;;;;17.90;9.27;;;;;;;-141.97;46.14;47369.16;5018084;28;20172;-83
2023/08/19 07:21:34;;;;;;;14.13;8.95;;;;;;;-141.97;45.79;47580.59;5012703;28;20701;-84
2023/08/19 07:24:01;;;;;;;19.75;9.70;;;;;;;-141.97;45.53;47309.59;5014165;28;20180;-84
2023/08/19 07:26:27;;;;;;;12.48;9.32;;;;;;;-141.97;44.07;47538.28;5013763;28;20180;-83
2023/08/19 07:28:52;;;;;;;13.70;9.70;;;;;;;-141.97;42.81;47382.63;5014061;28;20196;-84
2023/08/19 07:31:21;;;;;;;13.68;10.10;;;;;;;-141.97;42.12;47334.56;5012962;28;20632;-85
2023/08/19 07:33:47;;;;;;;15.65;10.38;;;;;;;-141.97;42.25;47492.16;5020548;28;20159;-84
2023/08/19 07:36:13;;;;;;;13.48;8.93;;;;;;;-141.97;42.44;47386.47;5028900;28;20188;-83
2023/08/19 07:38:38;;;;;;;10.43;7.78;;;;;;;-141.97;42.37;47369.16;5005957;28;20251;-84
2023/08/19 07:41:04;;;;;;;13.48;8.68;;;;;;;-141.97;42.88;47373.00;4999837;28;20205;-84
2023/08/19 07:43:29;;;;;;;14.13;8.60;;;;;;;-141.97;43.04;47422.97;5014109;28;20168;-84
2023/08/19 07:45:55;;;;;;;11.10;8.38;;;;;;;-141.97;42.24;47384.53;5003124;28;20245;-84
2023/08/19 07:48:20;;;;;;;10.93;7.22;;;;;;;-141.97;41.98;47378.78;5013982;28;20243;-84
2023/08/19 07:50:46;;;;;;;9.98;6.93;;;;;;;-141.97;41.99;47340.34;5012015;28;20176;-84
2023/08/19 07:53:12;;;;;;;8.57;6.47;;;;;;;-141.97;41.57;47334.56;5013378;28;20222;-84
2023/08/19 07:55:38;;;;;;;10.75;6.82;;;;;;;-141.97;41.40;47340.34;5012876;28;20175;-83
2023/08/19 07:58:03;;;;;;;9.52;6.30;;;;;;;-141.97;41.24;47342.25;5013305;28;20517;-84
2023/08/19 08:00:29;;;;;;;9.07;6.40;;;;;;;-141.97;41.19;47382.63;5012826;28;20221;-83
2023/08/19 08:02:54;;;;;;;8.05;6.68;;;;;;;-141.97;41.24;47384.53;5012992;28;20598;-83
2023/08/19 08:05:20;;;;;;;8.30;6.28;;;;;;;-141.97;40.50;47338.41;5013017;28;20167;-83
2023/08/19 08:07:45;;;;;;;8.65;6.20;;;;;;;-141.97;41.04;47378.78;5012874;28;20172;-83
2023/08/19 08:10:11;;;;;;;9.50;6.72;;;;;;;-141.97;41.67;47603.66;5014252;28;20177;-83
2023/08/19 08:12:36;;;;;;;7.00;6.10;;;;;;;-141.97;41.34;47371.09;5013900;28;20248;-83
2023/08/19 08:15:03;;;;;;;10.68;7.22;;;;;;;-141.97;41.46;47369.16;5014725;28;20193;-82
2023/08/19 08:17:28;;;;;;;12.27;7.45;;;;;;;-141.97;41.67;47376.84;5013040;28;20230;-83
2023/08/19 08:19:56;;;;;;;11.20;7.57;;;;;;;-141.97;41.98;47353.78;5012631;28;20230;-84
2023/08/19 08:22:21;;;;;;;12.55;7.80;;;;;;;-141.97;42.37;47346.09;5012031;28;20170;-84
2023/08/19 08:24:47;;;;;;;14.50;7.65;;;;;;;-141.97;42.08;47376.84;5012733;28;20260;-84
2023/08/19 08:27:13;;;;;;;11.55;8.02;;;;;;;-141.97;41.77;47376.84;5012381;28;20175;-81
2023/08/19 08:29:39;;;;;;;10.75;7.85;;;;;;;-141.97;41.38;47334.56;5012772;28;20164;-84
2023/08/19 08:32:04;;;;;;;11.18;8.02;;;;;;;-141.97;41.38;47376.84;5010318;28;20566;-83
2023/08/19 08:34:30;;;;;;;12.65;7.95;;;;;;;-141.97;41.24;47386.47;5012061;28;20178;-84
2023/08/19 08:36:55;;;;;;;11.05;7.80;;;;;;;-141.97;41.51;47342.25;5011860;28;20247;-84
2023/08/19 08:39:21;;;;;;;10.38;7.30;;;;;;;-141.97;41.05;47311.50;5011017;28;20183;-83
2023/08/19 08:41:46;;;;;;;10.27;7.10;;;;;;;-141.97;40.40;47369.16;5011910;28;20224;-83
2023/08/19 08:44:12;;;;;;;11.35;6.88;;;;;;;-141.97;40.17;47336.50;5012702;28;20259;-83
2023/08/19 08:46:39;;;;;;;14.10;7.20;;;;;;;-141.97;39.73;47357.63;5003770;28;20239;-87
2023/08/19 08:49:05;;;;;;;9.52;7.45;;;;;;;-141.97;39.82;47307.66;5014282;28;20192;-84
2023/08/19 08:51:31;;;;;;;10.68;7.28;;;;;;;-141.97;38.99;47315.34;5011307;28;20178;-83
2023/08/19 08:53:57;;;;;;;10.65;6.68;;;;;;;-141.97;38.90;47509.47;5012743;28;20226;-83
2023/08/19 08:56:23;;;;;;;10.77;6.47;;;;;;;-141.97;38.29;47355.72;5010587;28;20173;-84
2023/08/19 08:58:48;;;;;;;9.05;6.90;;;;;;;-141.97;37.51;47276.91;5011687;28;20681;-84
2023/08/19 09:01:16;;;;;;;10.05;6.50;;;;;;;-141.97;35.80;47334.56;5011800;28;20217;-83
2023/08/19 09:03:45;;;;;;;10.10;7.55;;;;;;;-141.97;36.01;47321.13;5012652;28;20173;-84
2023/08/19 09:06:15;;;;;;;9.98;6.40;;;;;;;-141.97;36.13;47286.53;5011932;28;20197;-84
2023/08/19 09:09:02;;;;;;;8.10;6.50;;;;;;;-141.97;35.10;47296.13;5012341;28;20197;-88
2023/08/19 09:11:29;;;;;;;14.50;7.25;;;;;;;-141.97;34.92;47307.66;5012659;28;20243;-86
2023/08/19 09:14:17;;;;;;;7.20;6.10;;;;;;;-141.97;34.51;47263.47;5012200;28;20171;-85
2023/08/19 09:16:43;;;;;;;7.95;6.10;;;;;;;-141.97;34.08;47259.63;4961315;29;20258;-85
2023/08/19 09:19:08;;;;;;;8.10;5.97;;;;;;;-141.97;33.51;47276.91;4971535;29;20192;-84
2023/08/19 09:21:34;;;;;;;8.27;5.53;;;;;;;-141.97;32.83;47238.47;4963964;29;20227;-83
2023/08/19 09:23:59;;;;;;;8.93;6.10;;;;;;;-141.97;33.14;47184.66;4967854;29;20181;-82
2023/08/19 09:26:25;;;;;;;10.63;6.43;;;;;;;-141.97;32.83;47234.63;4962236;29;20549;-85
2023/08/19 09:28:56;;;;;;;7.32;5.97;;;;;;;-141.97;32.26;47219.25;4952456;29;20207;-85
2023/08/19 09:31:22;;;;;;;7.80;5.43;;;;;;;-141.97;31.81;47246.16;4963803;28;20180;-83
2023/08/19 09:33:48;;;;;;;7.93;5.63;;;;;;;-141.97;31.85;47246.16;4951501;28;20268;-83
2023/08/19 09:36:13;;;;;;;5.30;4.80;;;;;;;-141.97;31.47;47246.16;4951232;29;20164;-84
2023/08/19 09:38:40;;;;;;;7.00;4.82;;;;;;;-141.97;31.79;47230.78;4951105;29;20169;-84
2023/08/19 09:41:10;;;;;;;6.63;5.18;;;;;;;-141.97;31.67;47236.56;4951307;29;20239;-84
2023/08/19 09:43:39;;;;;;;7.45;5.00;;;;;;;-141.97;32.08;47134.69;4951819;29;20172;-83
2023/08/19 09:46:05;;;;;;;6.70;5.18;;;;;;;-141.97;32.52;47275.00;4952007;29;20195;-84
2023/08/19 09:48:31;;;;;;;8.55;5.72;;;;;;;-141.97;32.42;47246.16;4944216;28;20284;-86
2023/08/19 09:50:56;;;;;;;9.48;5.10;;;;;;;-141.97;32.25;47261.53;4951765;29;20169;-84
2023/08/19 09:53:22;;;;;;;7.63;5.10;;;;;;;-141.97;32.05;47273.06;4966829;28;20242;-83
2023/08/19 09:55:49;;;;;;;5.80;5.20;;;;;;;-141.97;32.36;47265.38;4992632;28;20701;-83
2023/08/19 09:58:14;;;;;;;7.90;5.70;;;;;;;-141.97;32.11;47557.53;4992547;28;20170;-87
2023/08/19 10:00:41;;;;;;;6.85;5.55;;;;;;;-141.97;32.01;47242.31;4993097;28;20198;-83
2023/08/19 10:03:07;;;;;;;10.30;5.72;;;;;;;-141.97;31.72;47226.94;5007779;28;20198;-84
2023/08/19 10:05:39;;;;;;;9.85;5.50;;;;;;;-141.97;31.47;47211.56;5011179;28;20623;-84
2023/08/19 10:08:07;;;;;;;7.72;5.90;;;;;;;-141.97;31.26;47361.47;5012131;28;20163;-83
2023/08/19 10:10:36;;;;;;;8.40;5.65;;;;;;;-141.97;31.20;47236.56;5014142;28;20650;-83
2023/08/19 10:13:03;;;;;;;5.93;5.18;;;;;;;-141.97;31.24;47219.25;5015022;28;20213;-83
2023/08/19 10:15:32;;;;;;;7.05;5.10;;;;;;;-141.97;31.58;47230.78;5029165;28;20182;-84
2023/08/19 10:18:01;;;;;;;8.48;5.50;;;;;;;-141.97;31.75;47273.06;5028668;28;20179;-83
2023/08/19 10:20:31;;;;;;;6.03;5.38;;;;;;;-141.97;31.33;47242.31;5016255;28;20285;-84
2023/08/19 10:23:00;;;;;;;7.18;5.20;;;;;;;-141.97;31.07;47236.56;5015558;28;20194;-83
2023/08/19 10:25:27;;;;;;;7.88;5.70;;;;;;;-141.97;31.02;47219.25;5015573;28;20250;-83
2023/08/19 10:28:04;;;;;;;8.27;5.60;;;;;;;-141.97;31.70;47246.16;5015373;28;20228;-85
2023/08/19 10:30:31;;;;;;;9.27;5.45;;;;;;;-141.97;31.33;47236.56;5015659;28;20253;-86
2023/08/19 10:33:24;;;;;;;10.20;5.80;;;;;;;-141.97;31.04;47219.25;5014908;28;20189;-84
2023/08/19 10:36:03;;;;;;;11.23;5.55;;;;;;;-141.97;31.05;47544.06;4954591;29;20197;-84
2023/08/19 10:38:48;;;;;;;7.32;5.40;;;;;;;-141.97;31.61;47273.06;4939019;29;20624;-84
2023/08/19 10:41:29;;;;;;;7.53;5.72;;;;;;;-141.97;31.38;47250.00;4939314;29;20215;-82
2023/08/19 10:43:59;;;;;;;7.88;5.80;;;;;;;-141.97;31.36;47255.78;4957242;29;20598;-84
2023/08/19 10:46:36;;;;;;;10.27;5.75;;;;;;;-141.97;31.53;47232.72;4954552;29;20192;-82
2023/08/19 10:49:03;;;;;;;9.80;5.90;;;;;;;-141.97;31.58;47269.22;4954296;29;20613;-82
2023/08/19 10:51:53;;;;;;;8.98;6.00;;;;;;;-141.97;31.62;47230.78;4954378;29;20173;-85
2023/08/19 10:54:43;;;;;;;15.13;5.90;;;;;;;-141.97;31.23;47215.41;4953927;28;20663;-82
2023/08/19 10:57:25;;;;;;;6.20;5.60;;;;;;;-141.97;31.23;47219.25;4936225;29;20234;-83
2023/08/19 10:59:57;;;;;;;6.00;5.38;;;;;;;-141.97;31.52;47159.69;4936189;29;20685;-83
2023/08/19 11:02:24;;;;;;;9.02;5.85;;;;;;;-141.97;31.10;47261.53;4936644;29;20209;-84
2023/08/19 11:04:51;;;;;;;6.30;5.30;;;;;;;-141.97;31.02;47251.94;4935491;29;20291;-84
2023/08/19 11:07:18;;;;;;;6.60;5.50;;;;;;;-141.97;30.42;47244.25;4920869;29;20625;-83
2023/08/19 11:09:45;;;;;;;8.13;5.50;;;;;;;-141.97;30.76;47259.63;4935800;29;20275;-83